createdAt,value
2018-09-25T00:00:01.832Z,6.74
2018-09-25T00:01:10.734Z,6.77
2018-09-25T00:02:19.365Z,6.68
2018-09-25T00:03:28.006Z,6.7
2018-09-25T00:04:36.647Z,6.62
2018-09-25T00:05:45.294Z,6.68
2018-09-25T00:06:53.923Z,6.7
2018-09-25T00:08:02.564Z,6.62
2018-09-25T00:09:11.199Z,6.6
2018-09-25T00:10:20.288Z,6.56
2018-09-25T00:11:28.861Z,6.65
2018-09-25T00:12:37.508Z,6.64
2018-09-25T00:13:46.414Z,6.59
2018-09-25T00:14:55.066Z,6.64
2018-09-25T00:16:04.228Z,6.62
2018-09-25T00:17:13.134Z,6.65
2018-09-25T00:18:21.769Z,6.57
2018-09-25T00:19:30.415Z,6.6
2018-09-25T00:20:39.056Z,6.59
2018-09-25T00:21:47.689Z,6.57
2018-09-25T00:22:56.600Z,6.62
2018-09-25T00:24:05.229Z,6.56
2018-09-25T00:25:13.873Z,6.54
2018-09-25T00:26:23.254Z,6.57
2018-09-25T00:27:32.157Z,6.53
2018-09-25T00:28:40.786Z,6.47
2018-09-25T00:29:49.436Z,6.52
2018-09-25T00:30:58.070Z,6.54
2018-09-25T00:32:06.974Z,6.57
2018-09-25T00:33:15.602Z,6.54
2018-09-25T00:34:24.243Z,6.53
2018-09-25T00:35:32.886Z,6.49
2018-09-25T00:36:41.527Z,6.47
2018-09-25T00:37:50.166Z,6.53
2018-09-25T00:38:58.796Z,6.52
2018-09-25T00:40:07.455Z,6.52
2018-09-25T00:41:16.091Z,6.52
2018-09-25T00:42:24.736Z,6.47
2018-09-25T00:43:33.364Z,6.57
2018-09-25T00:44:42.008Z,6.54
2018-09-25T00:45:50.642Z,6.5
2018-09-25T00:46:59.300Z,6.52
2018-09-25T00:48:07.916Z,6.54
2018-09-25T00:49:16.557Z,6.53
2018-09-25T00:50:25.193Z,6.54
2018-09-25T00:51:33.839Z,6.5
2018-09-25T00:52:42.804Z,6.54
2018-09-25T00:53:51.436Z,6.56
2018-09-25T00:55:00.331Z,6.49
2018-09-25T00:56:08.966Z,6.49
2018-09-25T00:57:17.612Z,6.5
2018-09-25T00:58:26.248Z,6.47
2018-09-25T00:59:34.886Z,6.54
2018-09-25T01:00:43.529Z,6.52
2018-09-25T01:01:52.423Z,6.54
2018-09-25T01:03:01.332Z,6.44
2018-09-25T01:04:09.980Z,6.43
2018-09-25T01:05:18.627Z,6.47
2018-09-25T01:06:27.783Z,6.41
2018-09-25T01:07:36.426Z,6.38
2018-09-25T01:08:45.064Z,6.32
2018-09-25T01:09:53.709Z,6.43
2018-09-25T01:11:02.354Z,6.44
2018-09-25T01:12:10.983Z,6.44
2018-09-25T01:13:19.626Z,6.35
2018-09-25T01:14:28.259Z,6.32
2018-09-25T01:15:37.439Z,6.35
2018-09-25T01:16:46.074Z,6.38
2018-09-25T01:17:54.716Z,6.35
2018-09-25T01:19:03.665Z,6.35
2018-09-25T01:20:12.257Z,6.38
2018-09-25T01:21:20.890Z,6.31
2018-09-25T01:22:29.532Z,6.32
2018-09-25T01:23:38.161Z,6.35
2018-09-25T01:24:46.812Z,6.25
2018-09-25T01:25:55.445Z,6.28
2018-09-25T01:27:04.085Z,6.31
2018-09-25T01:28:12.715Z,6.28
2018-09-25T01:29:21.352Z,6.17
2018-09-25T01:30:29.995Z,6.19
2018-09-25T01:31:38.636Z,6.09
2018-09-25T01:32:47.276Z,6.16
2018-09-25T01:33:55.907Z,6.1
2018-09-25T01:35:04.549Z,6.09
2018-09-25T01:36:13.188Z,6.06
2018-09-25T01:37:21.839Z,6.12
2018-09-25T01:38:30.469Z,6.07
2018-09-25T01:39:39.114Z,6.02
2018-09-25T01:40:47.747Z,6.05
2018-09-25T01:41:56.393Z,6.05
2018-09-25T01:43:05.021Z,6.07
2018-09-25T01:44:13.666Z,6.05
2018-09-25T01:45:22.302Z,5.97
2018-09-25T01:46:30.949Z,5.97
2018-09-25T01:47:39.585Z,5.92
2018-09-25T01:48:48.221Z,5.98
2018-09-25T01:49:57.118Z,5.98
2018-09-25T01:51:05.808Z,6.01
2018-09-25T01:52:14.401Z,6.01
2018-09-25T01:53:23.034Z,6.01
2018-09-25T01:54:31.678Z,6.01
2018-09-25T01:55:40.307Z,5.99
2018-09-25T01:56:48.953Z,5.97
2018-09-25T01:57:57.593Z,5.99
2018-09-25T01:59:06.489Z,5.9
2018-09-25T02:00:15.123Z,5.94
2018-09-25T02:01:23.764Z,5.84
2018-09-25T02:02:32.398Z,5.91
2018-09-25T02:03:41.045Z,5.83
2018-09-25T02:04:49.943Z,5.94
2018-09-25T02:05:58.850Z,5.87
2018-09-25T02:07:07.488Z,5.76
2018-09-25T02:08:16.128Z,5.79
2018-09-25T02:09:24.767Z,5.77
2018-09-25T02:10:33.405Z,5.79
2018-09-25T02:11:42.041Z,5.74
2018-09-25T02:12:50.677Z,5.76
2018-09-25T02:13:59.320Z,5.76
2018-09-25T02:15:08.279Z,5.65
2018-09-25T02:16:16.917Z,5.69
2018-09-25T02:17:25.554Z,5.62
2018-09-25T02:18:34.195Z,5.65
2018-09-25T02:19:43.094Z,5.67
2018-09-25T02:20:51.736Z,5.67
2018-09-25T02:22:00.371Z,5.69
2018-09-25T02:23:09.275Z,5.61
2018-09-25T02:24:17.910Z,5.64
2018-09-25T02:25:26.544Z,5.62
2018-09-25T02:26:35.179Z,5.55
2018-09-25T02:27:43.817Z,5.52
2018-09-25T02:28:52.463Z,5.58
2018-09-25T02:30:01.101Z,5.55
2018-09-25T02:31:09.742Z,5.56
2018-09-25T02:32:18.377Z,5.43
2018-09-25T02:33:27.019Z,5.44
2018-09-25T02:34:35.658Z,5.51
2018-09-25T02:35:44.298Z,5.46
2018-09-25T02:36:53.468Z,5.47
2018-09-25T02:38:02.105Z,5.56
2018-09-25T02:39:11.012Z,5.44
2018-09-25T02:40:19.925Z,5.46
2018-09-25T02:41:28.559Z,5.44
2018-09-25T02:42:37.721Z,5.4
2018-09-25T02:43:46.625Z,5.41
2018-09-25T02:44:55.793Z,5.47
2018-09-25T02:46:04.431Z,5.43
2018-09-25T02:47:13.595Z,5.46
2018-09-25T02:48:22.497Z,5.43
2018-09-25T02:49:31.400Z,5.4
2018-09-25T02:50:40.043Z,5.47
2018-09-25T02:51:48.690Z,5.52
2018-09-25T02:52:57.328Z,5.38
2018-09-25T02:54:05.964Z,5.43
2018-09-25T02:55:14.612Z,5.43
2018-09-25T02:56:23.278Z,5.37
2018-09-25T02:57:31.883Z,5.34
2018-09-25T02:58:40.784Z,5.34
2018-09-25T02:59:49.701Z,5.33
2018-09-25T03:00:58.342Z,5.37
2018-09-25T03:02:07.242Z,5.34
2018-09-25T03:03:16.158Z,5.29
2018-09-25T03:04:25.326Z,5.34
2018-09-25T03:05:33.977Z,5.29
2018-09-25T03:06:43.150Z,5.41
2018-09-25T03:07:51.803Z,5.31
2018-09-25T03:09:00.981Z,5.31
2018-09-25T03:10:09.628Z,5.31
2018-09-25T03:11:18.798Z,5.37
2018-09-25T03:12:27.686Z,5.33
2018-09-25T03:13:36.576Z,5.28
2018-09-25T03:14:45.223Z,5.33
2018-09-25T03:15:54.121Z,5.38
2018-09-25T03:17:02.766Z,5.34
2018-09-25T03:18:11.397Z,5.28
2018-09-25T03:19:20.108Z,5.31
2018-09-25T03:20:29.430Z,5.34
2018-09-25T03:21:38.609Z,5.37
2018-09-25T03:22:47.248Z,5.31
2018-09-25T03:23:55.919Z,5.34
2018-09-25T03:25:04.523Z,5.28
2018-09-25T03:26:13.153Z,5.28
2018-09-25T03:27:21.800Z,5.28
2018-09-25T03:28:30.429Z,5.29
2018-09-25T03:29:39.072Z,5.31
2018-09-25T03:30:47.713Z,5.25
2018-09-25T03:31:56.375Z,5.2
2018-09-25T03:33:05.010Z,5.18
2018-09-25T03:34:13.917Z,5.22
2018-09-25T03:35:22.551Z,5.16
2018-09-25T03:36:31.199Z,5.15
2018-09-25T03:37:39.834Z,5.23
2018-09-25T03:38:48.472Z,5.28
2018-09-25T03:39:57.106Z,5.25
2018-09-25T03:41:05.745Z,5.23
2018-09-25T03:42:14.653Z,5.2
2018-09-25T03:43:23.296Z,5.2
2018-09-25T03:44:32.465Z,5.16
2018-09-25T03:45:41.093Z,5.18
2018-09-25T03:46:49.741Z,5.16
2018-09-25T03:47:58.381Z,5.19
2018-09-25T03:49:07.290Z,5.19
2018-09-25T03:50:16.180Z,5.2
2018-09-25T03:51:24.827Z,5.26
2018-09-25T03:52:33.752Z,5.16
2018-09-25T03:53:42.391Z,5.22
2018-09-25T03:54:51.291Z,5.25
2018-09-25T03:56:00.202Z,5.08
2018-09-25T03:57:09.104Z,5.12
2018-09-25T03:58:18.015Z,5.2
2018-09-25T03:59:26.705Z,5.13
2018-09-25T04:00:35.608Z,5.13
2018-09-25T04:01:44.243Z,5.1
2018-09-25T04:02:52.883Z,5.08
2018-09-25T04:04:01.523Z,5.04
2018-09-25T04:05:10.412Z,5.01
2018-09-25T04:06:19.196Z,5.01
2018-09-25T04:07:27.691Z,5
2018-09-25T04:08:36.337Z,4.9
2018-09-25T04:09:45.239Z,5
2018-09-25T04:10:53.881Z,4.97
2018-09-25T04:12:02.522Z,5
2018-09-25T04:13:11.160Z,5.01
2018-09-25T04:14:19.796Z,4.98
2018-09-25T04:15:28.432Z,4.9
2018-09-25T04:16:37.067Z,4.87
2018-09-25T04:17:45.977Z,4.87
2018-09-25T04:18:54.890Z,4.89
2018-09-25T04:20:04.070Z,4.94
2018-09-25T04:21:12.710Z,4.84
2018-09-25T04:22:21.608Z,4.94
2018-09-25T04:23:30.252Z,4.86
2018-09-25T04:24:38.890Z,4.97
2018-09-25T04:25:47.529Z,5.01
2018-09-25T04:26:56.170Z,4.92
2018-09-25T04:28:04.817Z,4.98
2018-09-25T04:29:13.455Z,5.04
2018-09-25T04:30:22.353Z,4.97
2018-09-25T04:31:30.987Z,5.01
2018-09-25T04:32:39.625Z,4.94
2018-09-25T04:33:48.262Z,5
2018-09-25T04:34:57.432Z,4.92
2018-09-25T04:36:06.360Z,4.98
2018-09-25T04:37:15.080Z,4.97
2018-09-25T04:38:23.994Z,4.84
2018-09-25T04:39:32.631Z,4.89
2018-09-25T04:40:41.271Z,4.9
2018-09-25T04:41:49.902Z,4.95
2018-09-25T04:42:58.812Z,4.9
2018-09-25T04:44:07.712Z,4.94
2018-09-25T04:45:16.355Z,4.89
2018-09-25T04:46:25.251Z,4.92
2018-09-25T04:47:33.888Z,4.9
2018-09-25T04:48:42.522Z,4.89
2018-09-25T04:49:51.163Z,4.92
2018-09-25T04:50:59.796Z,4.87
2018-09-25T04:52:08.450Z,4.87
2018-09-25T04:53:17.088Z,4.82
2018-09-25T04:54:25.731Z,4.89
2018-09-25T04:55:34.363Z,4.78
2018-09-25T04:56:43.002Z,4.92
2018-09-25T04:57:51.636Z,4.92
2018-09-25T04:59:00.277Z,4.92
2018-09-25T05:00:08.909Z,4.84
2018-09-25T05:01:17.547Z,4.92
2018-09-25T05:02:26.183Z,4.98
2018-09-25T05:03:34.828Z,4.87
2018-09-25T05:04:43.460Z,4.87
2018-09-25T05:05:52.101Z,4.9
2018-09-25T05:07:00.997Z,4.89
2018-09-25T05:08:09.644Z,4.89
2018-09-25T05:09:18.275Z,4.94
2018-09-25T05:10:26.914Z,4.9
2018-09-25T05:11:35.551Z,4.87
2018-09-25T05:12:44.229Z,4.79
2018-09-25T05:13:52.830Z,4.87
2018-09-25T05:15:01.988Z,4.86
2018-09-25T05:16:10.629Z,4.83
2018-09-25T05:17:19.522Z,4.86
2018-09-25T05:18:28.425Z,4.76
2018-09-25T05:19:37.063Z,4.84
2018-09-25T05:20:45.703Z,4.89
2018-09-25T05:21:54.330Z,4.89
2018-09-25T05:23:02.977Z,4.86
2018-09-25T05:24:11.614Z,4.83
2018-09-25T05:25:20.784Z,4.84
2018-09-25T05:26:29.419Z,4.92
2018-09-25T05:27:38.057Z,4.89
2018-09-25T05:28:46.959Z,4.9
2018-09-25T05:29:55.597Z,4.84
2018-09-25T05:31:04.235Z,4.92
2018-09-25T05:32:12.867Z,4.86
2018-09-25T05:33:21.507Z,4.92
2018-09-25T05:34:30.145Z,4.9
2018-09-25T05:35:38.785Z,4.89
2018-09-25T05:36:47.417Z,4.87
2018-09-25T05:37:56.057Z,4.9
2018-09-25T05:39:04.693Z,4.89
2018-09-25T05:40:13.333Z,4.89
2018-09-25T05:41:21.964Z,4.87
2018-09-25T05:42:30.604Z,4.9
2018-09-25T05:43:39.510Z,4.97
2018-09-25T05:44:48.415Z,4.94
2018-09-25T05:45:57.050Z,4.95
2018-09-25T05:47:05.684Z,5.02
2018-09-25T05:48:14.332Z,5.07
2018-09-25T05:49:22.957Z,5.08
2018-09-25T05:50:31.604Z,5.12
2018-09-25T05:51:40.240Z,5.2
2018-09-25T05:52:49.147Z,5.18
2018-09-25T05:53:57.774Z,5.19
2018-09-25T05:55:06.687Z,5.13
2018-09-25T05:56:15.317Z,5.23
2018-09-25T05:57:24.226Z,5.22
2018-09-25T05:58:33.128Z,5.25
2018-09-25T05:59:41.781Z,5.15
2018-09-25T06:00:50.450Z,5.2
2018-09-25T06:01:59.057Z,5.29
2018-09-25T06:03:07.686Z,5.34
2018-09-25T06:04:16.331Z,5.31
2018-09-25T06:05:25.230Z,5.31
2018-09-25T06:06:34.142Z,5.41
2018-09-25T06:07:43.049Z,5.36
2018-09-25T06:08:51.676Z,5.37
2018-09-25T06:10:00.317Z,5.34
2018-09-25T06:11:08.950Z,5.51
2018-09-25T06:12:17.597Z,5.51
2018-09-25T06:13:26.228Z,5.49
2018-09-25T06:14:34.949Z,5.55
2018-09-25T06:15:43.764Z,5.58
2018-09-25T06:16:53.356Z,5.54
2018-09-25T06:18:02.033Z,5.62
2018-09-25T06:19:10.670Z,5.69
2018-09-25T06:20:19.305Z,5.62
2018-09-25T06:21:27.950Z,5.7
2018-09-25T06:22:36.585Z,5.79
2018-09-25T06:23:45.216Z,5.73
2018-09-25T06:24:54.114Z,5.74
2018-09-25T06:26:02.751Z,5.8
2018-09-25T06:27:11.395Z,5.87
2018-09-25T06:28:20.026Z,5.87
2018-09-25T06:29:28.668Z,5.95
2018-09-25T06:30:37.296Z,5.98
2018-09-25T06:31:45.942Z,6.02
2018-09-25T06:32:54.578Z,5.97
2018-09-25T06:34:03.226Z,6.02
2018-09-25T06:35:12.134Z,6.06
2018-09-25T06:36:21.050Z,6.06
2018-09-25T06:37:29.682Z,6.12
2018-09-25T06:38:38.321Z,6.2
2018-09-25T06:39:46.957Z,6.15
2018-09-25T06:40:55.711Z,6.19
2018-09-25T06:42:04.781Z,6.25
2018-09-25T06:43:13.420Z,6.28
2018-09-25T06:44:22.059Z,6.32
2018-09-25T06:45:30.692Z,6.34
2018-09-25T06:46:39.332Z,6.36
2018-09-25T06:47:48.252Z,6.39
2018-09-25T06:48:56.900Z,6.32
2018-09-25T06:50:05.794Z,6.39
2018-09-25T06:51:14.451Z,6.39
2018-09-25T06:52:23.070Z,6.47
2018-09-25T06:53:31.707Z,6.49
2018-09-25T06:54:40.417Z,6.44
2018-09-25T06:55:49.318Z,6.5
2018-09-25T06:56:57.958Z,6.57
2018-09-25T06:58:06.594Z,6.57
2018-09-25T06:59:15.232Z,6.56
2018-09-25T07:00:23.869Z,6.57
2018-09-25T07:01:32.509Z,6.59
2018-09-25T07:02:41.149Z,6.59
2018-09-25T07:03:50.046Z,6.57
2018-09-25T07:04:58.684Z,6.74
2018-09-25T07:06:07.322Z,6.68
2018-09-25T07:07:15.962Z,6.64
2018-09-25T07:08:24.604Z,6.68
2018-09-25T07:09:33.270Z,6.65
2018-09-25T07:10:42.245Z,6.8
2018-09-25T07:11:50.842Z,6.74
2018-09-25T07:12:59.475Z,6.85
2018-09-25T07:14:08.382Z,6.78
2018-09-25T07:15:17.281Z,6.82
2018-09-25T07:16:25.924Z,6.82
2018-09-25T07:17:34.653Z,6.92
2018-09-25T07:18:43.203Z,6.87
2018-09-25T07:19:51.838Z,6.86
2018-09-25T07:21:00.477Z,6.93
2018-09-25T07:22:09.117Z,7.01
2018-09-25T07:23:18.020Z,7
2018-09-25T07:24:26.673Z,7.05
2018-09-25T07:25:35.296Z,7.11
2018-09-25T07:26:43.938Z,7.21
2018-09-25T07:27:52.578Z,7.11
2018-09-25T07:29:01.561Z,7.23
2018-09-25T07:30:10.349Z,7.28
2018-09-25T07:31:18.993Z,7.28
2018-09-25T07:32:27.765Z,7.39
2018-09-25T07:33:36.690Z,7.4
2018-09-25T07:34:45.342Z,7.43
2018-09-25T07:35:54.233Z,7.43
2018-09-25T07:37:02.872Z,7.56
2018-09-25T07:38:11.516Z,7.5
2018-09-25T07:39:20.697Z,7.59
2018-09-25T07:40:29.324Z,7.59
2018-09-25T07:41:37.966Z,7.77
2018-09-25T07:42:46.729Z,7.7
2018-09-25T07:43:56.226Z,7.77
2018-09-25T07:45:05.020Z,7.85
2018-09-25T07:46:14.167Z,7.77
2018-09-25T07:47:22.965Z,7.78
2018-09-25T07:48:31.613Z,7.84
2018-09-25T07:49:40.245Z,7.84
2018-09-25T07:50:48.888Z,7.99
2018-09-25T07:51:58.052Z,7.96
2018-09-25T07:53:06.700Z,8.03
2018-09-25T07:54:15.335Z,8.03
2018-09-25T07:55:23.980Z,8.03
2018-09-25T07:56:32.606Z,8.06
2018-09-25T07:57:41.514Z,8.09
2018-09-25T07:58:50.431Z,8.08
2018-09-25T07:59:59.068Z,8.16
2018-09-25T08:01:08.239Z,8.16
2018-09-25T08:02:17.146Z,8.16
2018-09-25T08:03:25.802Z,8.28
2018-09-25T08:04:34.421Z,8.26
2018-09-25T08:05:43.066Z,8.39
2018-09-25T08:06:51.697Z,8.42
2018-09-25T08:08:00.343Z,8.42
2018-09-25T08:09:09.059Z,8.53
2018-09-25T08:10:17.626Z,8.59
2018-09-25T08:11:26.256Z,8.64
2018-09-25T08:12:34.898Z,8.63
2018-09-25T08:13:43.545Z,8.71
2018-09-25T08:14:52.707Z,8.84
2018-09-25T08:16:01.351Z,8.82
2018-09-25T08:17:10.241Z,8.87
2018-09-25T08:18:18.885Z,8.89
2018-09-25T08:19:27.525Z,9
2018-09-25T08:20:36.174Z,9.12
2018-09-25T08:21:44.804Z,9.15
2018-09-25T08:22:53.448Z,9.19
2018-09-25T08:24:02.083Z,9.24
2018-09-25T08:25:10.731Z,9.33
2018-09-25T08:26:19.628Z,9.34
2018-09-25T08:27:28.653Z,9.44
2018-09-25T08:28:37.290Z,9.42
2018-09-25T08:29:45.992Z,9.44
2018-09-25T08:30:54.931Z,9.51
2018-09-25T08:32:03.568Z,9.56
2018-09-25T08:33:12.203Z,9.64
2018-09-25T08:34:20.845Z,9.64
2018-09-25T08:35:29.494Z,9.74
2018-09-25T08:36:38.134Z,9.67
2018-09-25T08:37:46.775Z,9.77
2018-09-25T08:38:55.477Z,9.85
2018-09-25T08:40:04.063Z,9.81
2018-09-25T08:41:12.732Z,9.85
2018-09-25T08:42:21.663Z,9.85
2018-09-25T08:43:30.643Z,9.84
2018-09-25T08:44:39.557Z,10.03
2018-09-25T08:45:48.600Z,10.05
2018-09-25T08:46:57.372Z,9.97
2018-09-25T08:48:06.100Z,10.05
2018-09-25T08:49:14.860Z,10.05
2018-09-25T08:50:23.757Z,10.06
2018-09-25T08:51:32.396Z,10.23
2018-09-25T08:52:41.037Z,10.23
2018-09-25T08:53:49.950Z,10.36
2018-09-25T08:54:58.586Z,10.36
2018-09-25T08:56:07.229Z,10.43
2018-09-25T08:57:15.862Z,10.46
2018-09-25T08:58:24.512Z,10.58
2018-09-25T08:59:33.148Z,10.53
2018-09-25T09:00:42.058Z,10.59
2018-09-25T09:01:50.967Z,10.57
2018-09-25T09:02:59.877Z,10.67
2018-09-25T09:04:08.525Z,10.67
2018-09-25T09:05:17.169Z,10.71
2018-09-25T09:06:25.802Z,10.71
2018-09-25T09:07:34.716Z,10.76
2018-09-25T09:08:43.364Z,10.86
2018-09-25T09:09:52.013Z,10.89
2018-09-25T09:11:00.656Z,11.01
2018-09-25T09:12:09.289Z,11.13
2018-09-25T09:13:17.939Z,11.08
2018-09-25T09:14:26.833Z,11.23
2018-09-25T09:15:35.488Z,11.27
2018-09-25T09:16:44.122Z,11.33
2018-09-25T09:17:52.770Z,11.35
2018-09-25T09:19:01.665Z,11.4
2018-09-25T09:20:10.327Z,11.44
2018-09-25T09:21:19.576Z,11.55
2018-09-25T09:22:28.483Z,11.7
2018-09-25T09:23:37.406Z,11.7
2018-09-25T09:24:46.613Z,11.76
2018-09-25T09:25:55.688Z,11.8
2018-09-25T09:27:04.763Z,11.81
2018-09-25T09:28:13.429Z,11.95
2018-09-25T09:29:22.390Z,11.88
2018-09-25T09:30:31.275Z,11.88
2018-09-25T09:31:40.196Z,11.93
2018-09-25T09:32:48.841Z,12.03
2018-09-25T09:33:57.474Z,11.97
2018-09-25T09:35:06.392Z,11.91
2018-09-25T09:36:15.034Z,11.81
2018-09-25T09:37:23.683Z,11.74
2018-09-25T09:38:32.315Z,11.7
2018-09-25T09:39:41.228Z,11.56
2018-09-25T09:40:49.901Z,11.48
2018-09-25T09:41:59.522Z,11.41
2018-09-25T09:43:07.995Z,11.45
2018-09-25T09:44:16.642Z,11.48
2018-09-25T09:45:25.293Z,11.55
2018-09-25T09:46:33.934Z,11.43
2018-09-25T09:47:42.577Z,11.45
2018-09-25T09:48:51.214Z,11.34
2018-09-25T09:50:00.124Z,11.34
2018-09-25T09:51:08.766Z,11.35
2018-09-25T09:52:17.411Z,11.35
2018-09-25T09:53:26.051Z,11.55
2018-09-25T09:54:34.689Z,11.56
2018-09-25T09:55:43.591Z,11.7
2018-09-25T09:56:52.241Z,11.81
2018-09-25T09:58:00.875Z,11.97
2018-09-25T09:59:09.519Z,11.99
2018-09-25T10:00:18.156Z,12.14
2018-09-25T10:01:27.076Z,12.12
2018-09-25T10:02:35.720Z,12.35
2018-09-25T10:03:44.358Z,12.4
2018-09-25T10:04:53.002Z,12.48
2018-09-25T10:06:01.639Z,12.69
2018-09-25T10:07:10.329Z,12.65
2018-09-25T10:08:18.931Z,12.78
2018-09-25T10:09:27.577Z,12.81
2018-09-25T10:10:36.474Z,12.95
2018-09-25T10:11:45.119Z,12.99
2018-09-25T10:12:53.761Z,13.06
2018-09-25T10:14:02.668Z,12.99
2018-09-25T10:15:11.307Z,13.17
2018-09-25T10:16:19.956Z,13.13
2018-09-25T10:17:28.595Z,13.19
2018-09-25T10:18:37.502Z,13.27
2018-09-25T10:19:46.143Z,13.31
2018-09-25T10:20:54.786Z,13.42
2018-09-25T10:22:03.480Z,13.5
2018-09-25T10:23:12.399Z,13.6
2018-09-25T10:24:21.042Z,13.57
2018-09-25T10:25:29.681Z,13.7
2018-09-25T10:26:38.325Z,13.73
2018-09-25T10:27:47.025Z,13.68
2018-09-25T10:28:55.672Z,13.75
2018-09-25T10:30:04.314Z,13.79
2018-09-25T10:31:12.955Z,13.89
2018-09-25T10:32:21.598Z,13.87
2018-09-25T10:33:30.248Z,13.91
2018-09-25T10:34:38.885Z,13.86
2018-09-25T10:35:47.532Z,13.89
2018-09-25T10:36:56.171Z,13.98
2018-09-25T10:38:05.087Z,13.97
2018-09-25T10:39:13.728Z,13.97
2018-09-25T10:40:22.371Z,13.97
2018-09-25T10:41:31.012Z,13.91
2018-09-25T10:42:39.651Z,13.82
2018-09-25T10:43:48.297Z,13.68
2018-09-25T10:44:56.938Z,13.73
2018-09-25T10:46:05.585Z,13.78
2018-09-25T10:47:14.220Z,13.54
2018-09-25T10:48:22.872Z,13.55
2018-09-25T10:49:31.511Z,13.42
2018-09-25T10:50:40.157Z,13.42
2018-09-25T10:51:48.791Z,13.28
2018-09-25T10:52:57.442Z,13.31
2018-09-25T10:54:06.352Z,13.36
2018-09-25T10:55:15.008Z,13.31
2018-09-25T10:56:23.962Z,13.42
2018-09-25T10:57:32.875Z,13.3
2018-09-25T10:58:41.523Z,13.42
2018-09-25T10:59:50.172Z,13.39
2018-09-25T11:00:58.817Z,13.37
2018-09-25T11:02:07.449Z,13.4
2018-09-25T11:03:16.228Z,13.39
2018-09-25T11:04:25.444Z,13.42
2018-09-25T11:05:34.106Z,13.39
2018-09-25T11:06:43.006Z,13.4
2018-09-25T11:07:51.656Z,13.31
2018-09-25T11:09:00.294Z,13.5
2018-09-25T11:10:08.993Z,13.49
2018-09-25T11:11:17.933Z,13.5
2018-09-25T11:12:26.578Z,13.49
2018-09-25T11:13:35.221Z,13.6
2018-09-25T11:14:43.882Z,13.55
2018-09-25T11:15:52.523Z,13.62
2018-09-25T11:17:01.167Z,13.57
2018-09-25T11:18:09.806Z,13.64
2018-09-25T11:19:18.451Z,13.54
2018-09-25T11:20:27.106Z,13.47
2018-09-25T11:21:35.746Z,13.45
2018-09-25T11:22:44.668Z,13.47
2018-09-25T11:23:53.301Z,13.43
2018-09-25T11:25:01.958Z,13.46
2018-09-25T11:26:10.596Z,13.33
2018-09-25T11:27:19.242Z,13.33
2018-09-25T11:28:27.876Z,13.33
2018-09-25T11:29:36.799Z,13.26
2018-09-25T11:30:45.438Z,13.26
2018-09-25T11:31:54.086Z,13.33
2018-09-25T11:33:02.720Z,13.39
2018-09-25T11:34:11.412Z,13.49
2018-09-25T11:35:21.297Z,13.65
2018-09-25T11:36:30.316Z,13.68
2018-09-25T11:37:39.233Z,13.64
2018-09-25T11:38:47.868Z,13.75
2018-09-25T11:39:56.520Z,13.68
2018-09-25T11:41:05.225Z,13.73
2018-09-25T11:42:13.813Z,13.6
2018-09-25T11:43:22.525Z,13.6
2018-09-25T11:44:31.172Z,13.55
2018-09-25T11:45:39.813Z,13.58
2018-09-25T11:46:48.527Z,13.43
2018-09-25T11:47:57.101Z,13.5
2018-09-25T11:49:05.744Z,13.37
2018-09-25T11:50:14.386Z,13.39
2018-09-25T11:51:23.036Z,13.55
2018-09-25T11:52:31.941Z,13.61
2018-09-25T11:53:40.591Z,13.71
2018-09-25T11:54:49.232Z,13.62
2018-09-25T11:55:57.872Z,13.8
2018-09-25T11:57:06.519Z,13.85
2018-09-25T11:58:15.163Z,13.79
2018-09-25T11:59:23.807Z,13.8
2018-09-25T12:00:32.444Z,13.8
2018-09-25T12:01:41.103Z,13.65
2018-09-25T12:02:49.736Z,13.71
2018-09-25T12:03:58.441Z,13.6
2018-09-25T12:05:07.024Z,13.5
2018-09-25T12:06:15.674Z,13.39
2018-09-25T12:07:24.316Z,13.31
2018-09-25T12:08:32.962Z,13.3
2018-09-25T12:09:41.601Z,13.17
2018-09-25T12:10:50.247Z,13.16
2018-09-25T12:11:58.889Z,13.06
2018-09-25T12:13:07.546Z,12.91
2018-09-25T12:14:16.449Z,12.98
2018-09-25T12:15:25.354Z,12.8
2018-09-25T12:16:34.279Z,12.84
2018-09-25T12:17:42.924Z,12.88
2018-09-25T12:18:51.557Z,12.83
2018-09-25T12:20:00.301Z,12.73
2018-09-25T12:21:08.845Z,12.78
2018-09-25T12:22:17.490Z,12.76
2018-09-25T12:23:26.212Z,12.81
2018-09-25T12:24:35.180Z,12.81
2018-09-25T12:25:43.827Z,12.83
2018-09-25T12:26:52.469Z,12.86
2018-09-25T12:28:01.121Z,12.93
2018-09-25T12:29:09.764Z,12.94
2018-09-25T12:30:18.408Z,12.95
2018-09-25T12:31:27.050Z,12.99
2018-09-25T12:32:35.708Z,12.94
2018-09-25T12:33:44.395Z,12.93
2018-09-25T12:34:53.973Z,13.01
2018-09-25T12:36:02.616Z,13.03
2018-09-25T12:37:11.255Z,12.95
2018-09-25T12:38:19.903Z,12.93
2018-09-25T12:39:28.817Z,12.98
2018-09-25T12:40:37.728Z,12.98
2018-09-25T12:41:46.372Z,13.09
2018-09-25T12:42:55.013Z,13.01
2018-09-25T12:44:03.657Z,13.16
2018-09-25T12:45:12.296Z,13.21
2018-09-25T12:46:20.944Z,13.2
2018-09-25T12:47:29.585Z,13.2
2018-09-25T12:48:38.237Z,13.21
2018-09-25T12:49:46.883Z,13.27
2018-09-25T12:50:55.525Z,13.31
2018-09-25T12:52:04.174Z,13.4
2018-09-25T12:53:12.820Z,13.4
2018-09-25T12:54:21.465Z,13.4
2018-09-25T12:55:30.103Z,13.43
2018-09-25T12:56:38.753Z,13.49
2018-09-25T12:57:47.396Z,13.45
2018-09-25T12:58:56.042Z,13.6
2018-09-25T13:00:04.953Z,13.6
2018-09-25T13:01:13.600Z,13.61
2018-09-25T13:02:22.243Z,13.57
2018-09-25T13:03:30.889Z,13.54
2018-09-25T13:04:39.796Z,13.52
2018-09-25T13:05:48.441Z,13.61
2018-09-25T13:06:57.084Z,13.57
2018-09-25T13:08:05.993Z,13.58
2018-09-25T13:09:14.637Z,13.62
2018-09-25T13:10:23.548Z,13.6
2018-09-25T13:11:32.985Z,13.61
2018-09-25T13:12:41.628Z,13.65
2018-09-25T13:13:50.540Z,13.73
2018-09-25T13:14:59.179Z,13.76
2018-09-25T13:16:08.160Z,13.67
2018-09-25T13:17:16.734Z,13.76
2018-09-25T13:18:25.650Z,13.8
2018-09-25T13:19:34.293Z,13.83
2018-09-25T13:20:44.230Z,13.87
2018-09-25T13:21:52.876Z,13.89
2018-09-25T13:23:01.522Z,13.87
2018-09-25T13:24:10.426Z,13.95
2018-09-25T13:25:19.344Z,13.94
2018-09-25T13:26:28.255Z,13.98
2018-09-25T13:27:36.896Z,14.03
2018-09-25T13:28:46.394Z,14.04
2018-09-25T13:29:58.913Z,14.04
2018-09-25T13:31:12.480Z,14.07
2018-09-25T13:32:25.073Z,14.03
2018-09-25T13:33:37.827Z,14.04
2018-09-25T13:34:49.391Z,14.18
2018-09-25T13:36:03.393Z,14.25
2018-09-25T13:37:16.506Z,14.23
2018-09-25T13:38:29.215Z,14.25
2018-09-25T13:39:41.877Z,14.28
2018-09-25T13:40:53.380Z,14.3
2018-09-25T13:42:05.796Z,14.33
2018-09-25T13:43:17.124Z,14.36
2018-09-25T13:44:31.984Z,14.23
2018-09-25T13:45:43.004Z,14.36
2018-09-25T13:46:57.269Z,14.34
2018-09-25T13:48:09.883Z,14.37
2018-09-25T13:49:23.029Z,14.43
2018-09-25T13:50:35.464Z,14.48
2018-09-25T13:51:48.958Z,14.48
2018-09-25T13:53:01.625Z,14.43
2018-09-25T13:54:14.564Z,14.48
2018-09-25T13:55:26.474Z,14.45
2018-09-25T13:56:39.117Z,14.51
2018-09-25T13:57:50.082Z,14.43
2018-09-25T13:59:03.809Z,14.43
2018-09-25T14:00:17.543Z,14.48
2018-09-25T14:01:29.668Z,14.44
2018-09-25T14:02:42.152Z,14.44
2018-09-25T14:03:53.947Z,14.38
2018-09-25T14:05:06.870Z,14.37
2018-09-25T14:06:19.696Z,14.41
2018-09-25T14:07:31.268Z,14.3
2018-09-25T14:08:44.023Z,14.28
2018-09-25T14:09:55.521Z,14.26
2018-09-25T14:11:04.157Z,14.26
2018-09-25T14:12:12.806Z,14.3
2018-09-25T14:13:21.445Z,14.36
2018-09-25T14:14:30.095Z,14.3
2018-09-25T14:15:38.992Z,14.3
2018-09-25T14:16:47.645Z,14.3
2018-09-25T14:17:56.286Z,14.19
2018-09-25T14:19:04.932Z,14.23
2018-09-25T14:20:13.577Z,14.18
2018-09-25T14:21:22.273Z,14.18
2018-09-25T14:22:30.875Z,14.22
2018-09-25T14:23:40.533Z,14.19
2018-09-25T14:24:49.306Z,14.22
2018-09-25T14:25:57.822Z,14.16
2018-09-25T14:27:06.730Z,14.18
2018-09-25T14:28:15.371Z,14.26
2018-09-25T14:29:24.027Z,14.22
2018-09-25T14:30:32.661Z,14.23
2018-09-25T14:31:41.310Z,14.18
2018-09-25T14:32:49.953Z,14.19
2018-09-25T14:33:58.602Z,14.26
2018-09-25T14:35:07.238Z,14.3
2018-09-25T14:36:16.146Z,14.3
2018-09-25T14:37:24.793Z,14.4
2018-09-25T14:38:33.443Z,14.37
2018-09-25T14:39:42.084Z,14.48
2018-09-25T14:40:50.722Z,14.45
2018-09-25T14:41:59.368Z,14.51
2018-09-25T14:43:08.288Z,14.53
2018-09-25T14:44:16.938Z,14.59
2018-09-25T14:45:25.579Z,14.66
2018-09-25T14:46:34.231Z,14.62
2018-09-25T14:47:42.880Z,14.77
2018-09-25T14:48:51.807Z,14.77
2018-09-25T14:50:00.707Z,14.85
2018-09-25T14:51:09.365Z,14.92
2018-09-25T14:52:18.001Z,14.85
2018-09-25T14:53:26.922Z,14.9
2018-09-25T14:54:35.595Z,14.92
2018-09-25T14:55:44.619Z,14.92
2018-09-25T14:56:53.254Z,14.86
2018-09-25T14:58:01.908Z,14.86
2018-09-25T14:59:10.824Z,14.89
2018-09-25T15:00:19.487Z,14.85
2018-09-25T15:01:28.403Z,14.92
2018-09-25T15:02:37.037Z,14.85
2018-09-25T15:03:45.686Z,14.93
2018-09-25T15:04:54.325Z,14.77
2018-09-25T15:06:02.984Z,14.78
2018-09-25T15:07:11.946Z,14.7